CheckWX is a tool to help pilots better visualize weather data.  It is not intended as a substitute for an official pre-flight weather briefing.

12:31:11 UTC

KRST TAF
Rochester International Airport
Rochester, Minnesota, USA
KRST 131130Z 1312/1412 14005KT 4SM BR OVC005 TEMPO 1314/1316 SCT005 OVC015 FM131600 13005KT P6SM OVC015 FM131800 17005KT 2SM -SN OVC015 TEMPO 1319/1321 1SM -SN OVC008 FM132100 16004KT 5SM BR OVC008

Dec-13@
12:00 UTC

Dec-13 @ 12:00 UTC

Dec-13@
16:00 UTC

Dec-13 @ 16:00 UTC

KRST 131130Z 1312/1412 14005KT 4SM BR OVC005
Wind
  • 140° at 5 KTS
Conditions
Mist
Cloud Levels
  • Overcast at 500' AGL

Dec-13@
14:00 UTC

Dec-13 @ 14:00 UTC

Dec-13@
16:00 UTC

Dec-13 @ 16:00 UTC

TEMPO 1314/1316 SCT005 OVC015

Temporary

Temporary Changes expected for less than half the time period

Cloud Levels
  • Scattered at 500' AGL
  • Overcast at 1,500' AGL

Dec-13@
16:00 UTC

Dec-13 @ 16:00 UTC

Dec-13@
18:00 UTC

Dec-13 @ 18:00 UTC

FM131600 13005KT P6SM OVC015

From

From Standard forecast or significant change

Wind
  • 130° at 5 KTS
Cloud Levels
  • Overcast at 1,500' AGL

Dec-13@
18:00 UTC

Dec-13 @ 18:00 UTC

Dec-13@
21:00 UTC

Dec-13 @ 21:00 UTC

FM131800 17005KT 2SM -SN OVC015

From

From Standard forecast or significant change

Wind
  • 170° at 5 KTS
Conditions
Light Snow
Cloud Levels
  • Overcast at 1,500' AGL

Dec-13@
19:00 UTC

Dec-13 @ 19:00 UTC

Dec-13@
21:00 UTC

Dec-13 @ 21:00 UTC

TEMPO 1319/1321 1SM -SN OVC008

Temporary

Temporary Changes expected for less than half the time period

Conditions
Light Snow
Cloud Levels
  • Overcast at 800' AGL

Dec-13@
21:00 UTC

Dec-13 @ 21:00 UTC

Dec-14@
12:00 UTC

Dec-14 @ 12:00 UTC

FM132100 16004KT 5SM BR OVC008

From

From Standard forecast or significant change

Wind
  • 160° at 4 KTS
Conditions
Mist
Cloud Levels
  • Overcast at 800' AGL